Time;durP1;ratioP1;P1;durP2;ratioP2;P2;SDS_P1;SDS_P2;PMS_P1;PMS_P2;Temp;Humidity;BMP_temperature;BMP_pressure;BME280_temperature;BME280_humidity;BME280_pressure;Samples;Min_cycle;Max_cycle;Signal;HPM_P1;HPM_P2
2023/03/07 03:00:29;;;;;;;18.27;13.63;;;3.50;99.90;;;;;;5998121;23;20202;-78
2023/03/07 03:02:56;;;;;;;15.27;13.63;;;3.50;99.90;;;;;;4949956;28;20245;-78
2023/03/07 03:05:23;;;;;;;14.73;13.23;;;3.40;99.90;;;;;;4954349;28;20194;-78
2023/03/07 03:07:52;;;;;;;14.50;13.10;;;3.40;99.90;;;;;;4954341;28;20205;-78
2023/03/07 03:10:19;;;;;;;14.27;12.93;;;3.30;99.90;;;;;;4953085;28;20676;-78
2023/03/07 03:12:46;;;;;;;15.77;13.60;;;3.20;99.90;;;;;;4934103;29;20286;-78
2023/03/07 03:15:14;;;;;;;14.87;12.70;;;3.20;99.90;;;;;;4938508;29;20199;-80
2023/03/07 03:17:43;;;;;;;15.07;13.47;;;3.10;99.90;;;;;;4935369;29;20206;-79
2023/03/07 03:20:11;;;;;;;14.93;13.43;;;3.00;99.90;;;;;;4933628;29;20290;-79
2023/03/07 03:22:38;;;;;;;14.60;13.17;;;3.00;99.90;;;;;;4934805;29;20696;-78
2023/03/07 03:25:08;;;;;;;14.57;13.17;;;2.90;99.90;;;;;;4934715;29;20585;-79
2023/03/07 03:27:37;;;;;;;14.63;13.07;;;2.90;99.90;;;;;;4934542;29;20294;-78
2023/03/07 03:30:04;;;;;;;13.87;12.47;;;2.90;99.90;;;;;;4934733;29;20226;-78
2023/03/07 03:32:34;;;;;;;14.00;12.50;;;2.90;99.90;;;;;;4930963;29;20760;-80
2023/03/07 03:35:03;;;;;;;15.60;14.10;;;2.90;99.90;;;;;;4936568;29;20657;-80
2023/03/07 03:37:31;;;;;;;14.40;13.00;;;2.80;99.90;;;;;;4939550;29;20246;-82
2023/03/07 03:39:57;;;;;;;15.20;13.60;;;2.90;99.90;;;;;;4937940;29;20677;-78
2023/03/07 03:42:24;;;;;;;14.60;13.17;;;2.80;99.90;;;;;;4934264;29;20223;-79
2023/03/07 03:44:51;;;;;;;15.60;13.93;;;2.80;99.90;;;;;;4937047;29;20266;-79
2023/03/07 03:47:18;;;;;;;15.27;12.93;;;2.90;99.90;;;;;;4929193;29;20607;-79
2023/03/07 03:49:45;;;;;;;15.20;13.70;;;2.90;99.90;;;;;;4930131;29;20251;-80
2023/03/07 03:52:13;;;;;;;15.57;13.97;;;2.90;99.90;;;;;;4928437;29;20229;-84
2023/03/07 03:54:40;;;;;;;15.30;13.70;;;2.90;99.90;;;;;;4924143;29;20204;-83
2023/03/07 03:57:07;;;;;;;14.37;12.87;;;3.00;99.90;;;;;;4915267;29;20204;-83
2023/03/07 03:59:34;;;;;;;15.37;13.87;;;3.00;99.90;;;;;;4921717;29;20200;-84
2023/03/07 04:02:01;;;;;;;15.43;13.93;;;3.00;99.90;;;;;;4920232;29;20330;-84
2023/03/07 04:04:27;;;;;;;15.10;13.50;;;3.00;99.90;;;;;;4923610;29;20200;-83
2023/03/07 04:06:54;;;;;;;16.93;13.53;;;3.10;99.90;;;;;;4925428;29;20245;-83
2023/03/07 04:09:22;;;;;;;15.07;13.47;;;3.10;99.90;;;;;;4918431;29;20208;-83
2023/03/07 04:11:49;;;;;;;15.63;14.07;;;3.10;99.90;;;;;;4922201;29;20228;-83
2023/03/07 04:14:16;;;;;;;14.00;12.70;;;3.10;99.90;;;;;;4918482;29;20701;-81
2023/03/07 04:16:43;;;;;;;14.67;13.07;;;3.10;99.90;;;;;;4934129;29;20200;-85
2023/03/07 04:19:11;;;;;;;14.63;13.17;;;3.10;99.90;;;;;;4931374;29;20258;-83
2023/03/07 04:21:39;;;;;;;14.47;12.97;;;3.10;99.90;;;;;;4919581;29;20239;-85
2023/03/07 04:24:07;;;;;;;15.37;13.77;;;3.10;99.90;;;;;;4938344;29;20222;-84
2023/03/07 04:26:36;;;;;;;14.43;12.93;;;3.10;99.90;;;;;;4939617;29;20752;-87
2023/03/07 04:29:04;;;;;;;13.70;12.33;;;3.10;99.90;;;;;;4938285;29;20263;-83
2023/03/07 04:31:35;;;;;;;13.93;12.63;;;3.00;99.90;;;;;;4938361;29;20306;-84
2023/03/07 04:34:04;;;;;;;13.73;12.43;;;3.00;99.90;;;;;;4938676;29;20207;-83
2023/03/07 04:36:31;;;;;;;14.27;12.87;;;2.90;99.90;;;;;;4937024;29;20581;-85
2023/03/07 04:38:58;;;;;;;14.27;12.87;;;2.90;99.90;;;;;;4938169;29;20203;-83
2023/03/07 04:41:26;;;;;;;14.20;12.83;;;2.80;99.90;;;;;;4939572;29;20264;-83
2023/03/07 04:44:01;;;;;;;14.37;13.00;;;2.80;99.90;;;;;;4939956;29;20262;-84
2023/03/07 04:46:28;;;;;;;13.80;12.50;;;2.80;99.90;;;;;;4938723;29;20208;-84
2023/03/07 04:48:55;;;;;;;14.63;13.23;;;2.70;99.90;;;;;;4920603;29;20309;-84
2023/03/07 04:51:22;;;;;;;14.30;12.90;;;2.80;99.90;;;;;;4925269;29;20215;-78
2023/03/07 04:53:50;;;;;;;15.93;13.03;;;2.80;99.90;;;;;;4937669;29;20195;-78
2023/03/07 04:56:17;;;;;;;13.67;12.37;;;2.80;99.90;;;;;;4938347;29;20200;-78
2023/03/07 04:58:45;;;;;;;15.30;13.80;;;2.80;99.90;;;;;;4940405;29;20286;-80
2023/03/07 05:01:14;;;;;;;14.77;13.37;;;2.90;99.90;;;;;;4938396;29;20291;-78
2023/03/07 05:03:42;;;;;;;14.27;12.87;;;2.90;99.90;;;;;;4950541;29;20196;-78
2023/03/07 05:06:13;;;;;;;14.10;12.80;;;2.90;99.90;;;;;;4941362;29;20278;-80
2023/03/07 05:08:40;;;;;;;14.60;13.17;;;3.00;99.90;;;;;;4939812;29;20195;-79
2023/03/07 05:11:07;;;;;;;14.77;13.27;;;3.00;99.90;;;;;;4935708;29;20229;-78
2023/03/07 05:13:34;;;;;;;15.47;13.97;;;3.00;99.90;;;;;;4939322;29;20211;-77
2023/03/07 05:16:01;;;;;;;14.67;13.27;;;3.00;99.90;;;;;;4932563;29;20230;-80
2023/03/07 05:18:30;;;;;;;14.20;12.97;;;3.00;99.90;;;;;;4938037;29;20623;-77
2023/03/07 05:20:58;;;;;;;15.70;14.20;;;3.00;99.90;;;;;;4939523;29;20239;-78
2023/03/07 05:23:26;;;;;;;15.47;13.80;;;3.10;99.90;;;;;;4932882;29;20202;-80
2023/03/07 05:25:54;;;;;;;13.73;12.50;;;3.10;99.90;;;;;;4932125;29;20216;-79
2023/03/07 05:28:21;;;;;;;15.10;13.70;;;3.10;99.90;;;;;;4940111;29;20200;-78
2023/03/07 05:30:48;;;;;;;14.73;13.33;;;3.10;99.90;;;;;;4939251;29;20713;-79
2023/03/07 05:33:15;;;;;;;14.93;13.53;;;3.10;99.90;;;;;;4940653;29;20219;-79
2023/03/07 05:35:44;;;;;;;14.80;13.17;;;3.20;99.90;;;;;;4939623;29;20210;-78
2023/03/07 05:38:12;;;;;;;14.33;12.93;;;3.10;99.90;;;;;;4939367;29;20203;-80
2023/03/07 05:40:40;;;;;;;15.10;13.70;;;3.20;99.90;;;;;;4939812;29;20199;-80
2023/03/07 05:43:09;;;;;;;15.20;13.80;;;3.20;99.90;;;;;;4939676;29;20207;-79
2023/03/07 05:45:36;;;;;;;14.97;13.50;;;3.20;99.90;;;;;;4935037;29;20192;-79
2023/03/07 05:48:03;;;;;;;14.77;13.40;;;3.20;99.90;;;;;;4938193;29;20262;-78
2023/03/07 05:50:30;;;;;;;15.07;13.77;;;3.30;99.90;;;;;;4939071;29;20796;-77
2023/03/07 05:52:59;;;;;;;14.10;12.83;;;3.40;99.90;;;;;;4938453;29;20279;-79
2023/03/07 05:55:30;;;;;;;14.40;13.10;;;3.30;99.90;;;;;;4923253;29;20210;-79
2023/03/07 05:57:57;;;;;;;14.77;13.43;;;3.40;99.90;;;;;;4937663;29;20199;-78
2023/03/07 06:00:24;;;;;;;13.97;12.80;;;3.40;99.90;;;;;;4937158;29;20200;-78
2023/03/07 06:03:01;;;;;;;14.50;13.20;;;3.40;99.90;;;;;;4930867;29;20256;-80
2023/03/07 06:05:27;;;;;;;14.77;13.40;;;3.40;99.90;;;;;;4937536;29;20759;-78
2023/03/07 06:07:54;;;;;;;14.77;13.37;;;3.40;99.90;;;;;;4938864;29;20207;-79
2023/03/07 06:10:22;;;;;;;14.87;13.47;;;3.40;99.90;;;;;;4938345;29;20609;-78
2023/03/07 06:12:50;;;;;;;14.43;13.03;;;3.40;99.90;;;;;;4938273;29;20267;-78
2023/03/07 06:15:17;;;;;;;14.20;12.90;;;3.40;99.90;;;;;;4939467;29;20214;-78
2023/03/07 06:17:45;;;;;;;13.37;12.17;;;3.50;99.90;;;;;;4937952;29;20208;-79
2023/03/07 06:20:13;;;;;;;13.77;12.57;;;3.50;99.90;;;;;;4938052;29;20206;-78
2023/03/07 06:22:40;;;;;;;16.70;15.00;;;3.50;99.90;;;;;;4938388;29;20215;-79
2023/03/07 06:25:09;;;;;;;15.37;13.87;;;3.60;99.90;;;;;;4936973;29;20207;-83
2023/03/07 06:27:39;;;;;;;15.80;14.13;;;3.60;99.90;;;;;;4938002;29;20203;-84
2023/03/07 06:30:07;;;;;;;14.63;13.13;;;3.60;99.90;;;;;;4937869;29;20207;-83
2023/03/07 06:32:35;;;;;;;14.63;13.23;;;3.60;99.90;;;;;;4935848;29;20224;-79
2023/03/07 06:35:04;;;;;;;14.27;12.97;;;3.70;99.90;;;;;;4936702;29;20401;-83
2023/03/07 06:37:31;;;;;;;14.43;13.13;;;3.80;99.90;;;;;;4936769;29;20834;-82
2023/03/07 06:40:04;;;;;;;14.97;13.60;;;3.80;99.90;;;;;;4923264;29;20262;-77
2023/03/07 06:42:31;;;;;;;14.40;13.10;;;3.90;99.90;;;;;;4927199;29;20274;-77
2023/03/07 06:44:59;;;;;;;14.03;12.83;;;4.00;99.90;;;;;;4934542;29;20215;-80
2023/03/07 06:47:28;;;;;;;14.70;13.40;;;4.10;99.90;;;;;;4933397;29;20203;-80
2023/03/07 06:49:55;;;;;;;13.97;12.73;;;4.10;99.90;;;;;;4934094;29;20210;-80
2023/03/07 06:52:22;;;;;;;14.73;13.40;;;4.20;99.90;;;;;;4930628;29;20601;-79
2023/03/07 06:54:49;;;;;;;14.50;13.00;;;4.30;99.90;;;;;;4934147;29;20195;-79
2023/03/07 06:57:16;;;;;;;14.20;12.93;;;4.40;99.90;;;;;;4917576;29;20224;-82
2023/03/07 06:59:44;;;;;;;14.77;13.37;;;4.60;99.90;;;;;;4929377;29;20309;-81
2023/03/07 07:02:14;;;;;;;14.17;12.90;;;4.60;99.90;;;;;;4930888;29;20224;-80
2023/03/07 07:04:41;;;;;;;14.77;13.40;;;4.70;99.90;;;;;;4929317;29;20194;-81
2023/03/07 07:07:08;;;;;;;14.67;13.37;;;4.80;99.90;;;;;;4928834;29;20633;-82
2023/03/07 07:09:35;;;;;;;15.57;14.17;;;4.90;99.90;;;;;;4935486;29;20196;-81
2023/03/07 07:12:04;;;;;;;15.97;14.40;;;5.00;99.90;;;;;;4926782;29;20280;-81
2023/03/07 07:14:31;;;;;;;15.10;13.37;;;5.10;99.90;;;;;;4942840;29;20196;-82
2023/03/07 07:16:58;;;;;;;16.03;13.80;;;5.20;99.90;;;;;;4923907;29;20207;-87
2023/03/07 07:19:28;;;;;;;15.90;14.23;;;5.20;99.90;;;;;;4941144;29;20231;-86
2023/03/07 07:21:56;;;;;;;14.60;13.33;;;5.30;99.90;;;;;;4940428;29;20318;-84
2023/03/07 07:24:23;;;;;;;14.07;12.77;;;5.40;99.90;;;;;;4939589;29;20203;-83
2023/03/07 07:26:51;;;;;;;13.90;12.67;;;5.40;99.90;;;;;;4936023;29;20201;-85
2023/03/07 07:29:19;;;;;;;14.30;13.07;;;5.50;99.90;;;;;;4937255;29;20235;-85
2023/03/07 07:31:50;;;;;;;15.07;13.50;;;5.60;99.90;;;;;;4934602;29;20220;-85
2023/03/07 07:34:19;;;;;;;14.30;12.90;;;5.60;99.90;;;;;;4939692;29;20210;-85
2023/03/07 07:36:48;;;;;;;14.23;12.93;;;5.70;99.90;;;;;;4941676;29;20268;-85
2023/03/07 07:39:16;;;;;;;15.57;13.90;;;5.70;99.90;;;;;;4936331;29;20207;-86
2023/03/07 07:41:46;;;;;;;15.17;13.00;;;5.70;99.90;;;;;;4934221;29;20235;-85
2023/03/07 07:44:14;;;;;;;14.03;12.87;;;5.70;99.90;;;;;;4932930;29;20208;-87
2023/03/07 07:46:53;;;;;;;14.73;13.47;;;5.70;99.90;;;;;;4934846;29;20215;-85
2023/03/07 07:49:20;;;;;;;13.40;12.30;;;5.70;99.90;;;;;;4927191;29;20214;-80
2023/03/07 07:51:48;;;;;;;14.10;12.73;;;5.70;99.90;;;;;;4923369;29;20226;-81
2023/03/07 07:54:15;;;;;;;14.37;13.00;;;5.80;99.90;;;;;;4936070;29;20291;-80
2023/03/07 07:56:42;;;;;;;15.37;13.80;;;5.90;99.90;;;;;;4935172;29;20748;-81
2023/03/07 07:59:09;;;;;;;14.63;13.30;;;5.90;99.90;;;;;;4928830;29;20215;-80
2023/03/07 08:01:36;;;;;;;14.30;12.90;;;6.20;99.90;;;;;;4935462;29;20234;-82
2023/03/07 08:04:03;;;;;;;13.73;12.63;;;6.40;99.90;;;;;;4930878;29;20593;-81
2023/03/07 08:06:30;;;;;;;15.00;13.63;;;6.60;99.90;;;;;;4935611;29;20212;-83
2023/03/07 08:08:59;;;;;;;15.17;13.57;;;6.70;99.90;;;;;;4930268;29;20203;-86
2023/03/07 08:11:26;;;;;;;12.87;11.47;;;6.80;99.90;;;;;;4938049;29;20302;-85
2023/03/07 08:13:52;;;;;;;12.20;11.00;;;6.80;99.90;;;;;;4937567;29;20234;-85
2023/03/07 08:16:23;;;;;;;12.57;11.23;;;6.90;99.90;;;;;;4938370;29;20274;-83
2023/03/07 08:18:51;;;;;;;12.03;11.00;;;7.00;99.90;;;;;;4936151;29;20223;-83
2023/03/07 08:21:18;;;;;;;12.00;10.80;;;7.20;99.90;;;;;;4936212;29;20230;-83
2023/03/07 08:23:45;;;;;;;13.43;11.37;;;7.40;99.90;;;;;;4939755;29;20199;-82
2023/03/07 08:26:13;;;;;;;9.37;7.83;;;7.80;99.90;;;;;;4935097;29;20290;-82
2023/03/07 08:28:41;;;;;;;10.63;9.53;;;7.90;99.90;;;;;;4939278;29;20227;-82
2023/03/07 08:31:09;;;;;;;11.23;9.60;;;7.80;99.90;;;;;;4940042;29;20234;-83
2023/03/07 08:33:36;;;;;;;10.77;7.30;;;7.80;99.90;;;;;;4933201;29;20247;-82
2023/03/07 08:36:03;;;;;;;13.43;12.20;;;7.70;99.90;;;;;;4913926;29;20244;-85
2023/03/07 08:38:30;;;;;;;11.27;10.17;;;7.80;99.90;;;;;;4923169;29;20239;-83
2023/03/07 08:41:00;;;;;;;10.53;8.20;;;7.80;99.90;;;;;;4939082;29;20258;-85
2023/03/07 08:43:29;;;;;;;12.67;8.63;;;7.80;99.90;;;;;;4933365;29;20696;-84
2023/03/07 08:45:56;;;;;;;11.17;10.07;;;7.90;99.90;;;;;;4940191;29;20211;-83
2023/03/07 08:48:23;;;;;;;12.73;11.57;;;7.90;99.90;;;;;;4938611;29;20210;-83
2023/03/07 08:50:50;;;;;;;11.07;8.83;;;8.00;99.90;;;;;;4940162;29;20247;-80
2023/03/07 08:53:17;;;;;;;11.40;9.73;;;8.10;99.90;;;;;;4939148;29;20238;-81
2023/03/07 08:55:44;;;;;;;13.20;12.03;;;8.20;99.90;;;;;;4928211;29;20195;-82
2023/03/07 08:58:11;;;;;;;13.80;12.50;;;8.20;99.90;;;;;;4938152;29;20271;-79
2023/03/07 09:00:39;;;;;;;13.60;12.30;;;8.20;99.90;;;;;;4931356;29;20192;-80
2023/03/07 09:03:07;;;;;;;13.20;12.00;;;8.20;99.90;;;;;;4937194;29;20211;-81
2023/03/07 09:05:37;;;;;;;13.03;11.83;;;8.10;99.90;;;;;;4938742;29;20700;-82
2023/03/07 09:08:04;;;;;;;13.00;11.80;;;8.00;99.90;;;;;;4938209;29;20295;-80
2023/03/07 09:10:31;;;;;;;12.30;11.20;;;8.00;99.90;;;;;;4937994;29;20602;-79
2023/03/07 09:12:58;;;;;;;12.80;11.70;;;7.90;99.90;;;;;;4934808;29;20229;-79
2023/03/07 09:15:25;;;;;;;12.53;11.43;;;7.90;99.90;;;;;;4937795;29;20637;-80
2023/03/07 09:17:53;;;;;;;12.60;11.40;;;7.80;99.90;;;;;;4935349;29;20204;-79
2023/03/07 09:20:21;;;;;;;12.87;11.77;;;7.80;99.90;;;;;;4936566;29;20708;-81
2023/03/07 09:22:47;;;;;;;12.20;11.10;;;7.70;99.90;;;;;;4937255;29;20219;-79
2023/03/07 09:25:15;;;;;;;12.20;11.03;;;7.50;99.90;;;;;;4937297;29;20203;-79
2023/03/07 09:27:44;;;;;;;12.43;11.17;;;7.50;99.90;;;;;;4937757;29;20203;-78
2023/03/07 09:30:11;;;;;;;12.63;11.43;;;7.50;99.90;;;;;;4937067;29;20273;-79
2023/03/07 09:32:38;;;;;;;12.10;11.10;;;7.60;99.90;;;;;;4927810;29;20344;-79
2023/03/07 09:35:09;;;;;;;12.70;11.60;;;7.60;99.90;;;;;;4935378;29;20207;-78
2023/03/07 09:37:36;;;;;;;12.93;11.83;;;7.60;99.90;;;;;;4936184;29;20249;-79
2023/03/07 09:40:06;;;;;;;13.63;12.23;;;7.70;99.90;;;;;;4934530;29;20246;-81
2023/03/07 09:42:40;;;;;;;12.17;11.17;;;7.60;99.90;;;;;;4936113;29;20231;-79
2023/03/07 09:45:20;;;;;;;11.93;10.93;;;7.60;99.90;;;;;;4934949;29;20207;-79
2023/03/07 09:48:08;;;;;;;13.57;12.27;;;7.70;99.90;;;;;;4928569;29;20294;-79
2023/03/07 09:50:44;;;;;;;12.73;11.63;;;7.80;99.90;;;;;;4942598;29;20243;-80
2023/03/07 09:53:20;;;;;;;12.30;11.30;;;7.70;99.90;;;;;;4936482;29;20265;-79
2023/03/07 09:55:50;;;;;;;12.70;11.60;;;7.70;99.90;;;;;;4929034;29;20627;-79
2023/03/07 09:58:22;;;;;;;12.97;11.83;;;7.70;99.90;;;;;;4937091;28;20739;-80
2023/03/07 10:00:56;;;;;;;12.13;11.03;;;7.80;99.90;;;;;;4921717;29;20675;-79
2023/03/07 10:03:32;;;;;;;13.00;11.77;;;7.80;99.90;;;;;;4936352;29;20198;-78
2023/03/07 10:06:08;;;;;;;12.57;11.27;;;7.80;99.90;;;;;;4936216;29;20203;-79
2023/03/07 10:08:34;;;;;;;13.67;11.63;;;7.60;99.90;;;;;;4935984;29;20199;-80
2023/03/07 10:11:15;;;;;;;12.30;11.30;;;7.40;99.90;;;;;;4938150;29;20219;-80
2023/03/07 10:13:55;;;;;;;12.00;10.90;;;7.30;99.90;;;;;;4934616;29;20218;-79
2023/03/07 10:16:29;;;;;;;12.67;11.50;;;7.30;99.90;;;;;;4937064;29;20203;-79
2023/03/07 10:19:05;;;;;;;12.00;11.00;;;7.30;99.90;;;;;;4936388;29;20619;-81
2023/03/07 10:21:43;;;;;;;9.00;8.07;;;7.30;99.90;;;;;;4934511;29;20246;-78
2023/03/07 10:24:42;;;;;;;8.73;6.90;;;7.40;99.90;;;;;;4936722;29;20202;-83
2023/03/07 10:27:11;;;;;;;8.30;7.60;;;7.50;99.90;;;;;;4923053;29;20215;-83
2023/03/07 10:29:44;;;;;;;10.00;7.57;;;7.70;99.90;;;;;;4935741;29;20622;-83
2023/03/07 10:32:21;;;;;;;9.27;8.37;;;7.70;99.90;;;;;;4934519;29;20633;-83
2023/03/07 10:34:54;;;;;;;10.97;9.77;;;7.80;99.90;;;;;;4927894;29;20716;-83
2023/03/07 10:37:34;;;;;;;9.73;7.27;;;7.70;99.90;;;;;;4936329;29;20222;-85
2023/03/07 10:40:01;;;;;;;10.47;9.23;;;7.70;99.90;;;;;;4936618;29;20702;-83
2023/03/07 10:42:34;;;;;;;8.73;6.33;;;7.70;99.90;;;;;;4934825;29;20712;-83
2023/03/07 10:45:02;;;;;;;8.63;6.20;;;7.60;99.90;;;;;;4936235;29;20203;-84
2023/03/07 10:47:29;;;;;;;8.17;6.77;;;7.60;99.90;;;;;;4936577;29;20207;-85
2023/03/07 10:50:02;;;;;;;11.93;6.50;;;7.50;99.90;;;;;;4933752;29;20215;-81
2023/03/07 10:52:35;;;;;;;8.23;6.17;;;7.60;99.90;;;;;;4936564;29;20227;-81
2023/03/07 10:55:37;;;;;;;10.00;9.00;;;7.60;99.90;;;;;;4936483;29;20254;-80
2023/03/07 10:58:19;;;;;;;10.33;6.57;;;7.70;99.90;;;;;;4925803;29;20211;-80
2023/03/07 11:00:58;;;;;;;11.93;10.73;;;7.70;99.90;;;;;;4921462;29;20219;-79
2023/03/07 11:03:29;;;;;;;8.90;6.80;;;7.70;99.90;;;;;;4917915;29;20230;-80
2023/03/07 11:05:58;;;;;;;11.80;10.77;;;7.70;99.90;;;;;;4935039;29;20215;-80
2023/03/07 11:08:31;;;;;;;12.47;11.37;;;7.80;99.90;;;;;;4932988;29;20203;-81
2023/03/07 11:10:58;;;;;;;11.03;9.40;;;7.80;99.90;;;;;;4930811;29;20581;-81
2023/03/07 11:13:25;;;;;;;10.37;9.23;;;7.80;99.90;;;;;;4936311;29;20639;-81
2023/03/07 11:16:07;;;;;;;11.40;10.40;;;7.80;99.90;;;;;;4933457;29;20217;-81
2023/03/07 11:18:40;;;;;;;8.23;7.00;;;7.90;99.90;;;;;;4933245;29;20206;-79
2023/03/07 11:21:26;;;;;;;11.30;10.20;;;8.00;99.90;;;;;;4934680;29;20219;-79
2023/03/07 11:24:00;;;;;;;9.40;8.37;;;8.10;99.90;;;;;;4926464;29;20207;-80
2023/03/07 11:26:31;;;;;;;12.70;11.40;;;8.30;99.90;;;;;;4934451;29;20203;-80
2023/03/07 11:29:06;;;;;;;11.03;8.17;;;8.40;99.90;;;;;;4936360;29;20203;-79
2023/03/07 11:31:38;;;;;;;9.40;7.97;;;8.40;99.90;;;;;;4926801;29;20230;-80
2023/03/07 11:34:15;;;;;;;12.13;8.17;;;8.50;99.90;;;;;;4934233;29;20226;-79
2023/03/07 11:36:47;;;;;;;12.10;9.23;;;8.30;99.90;;;;;;4934533;29;20202;-79
2023/03/07 11:39:25;;;;;;;10.30;9.20;;;8.20;99.90;;;;;;4933379;29;20213;-80
2023/03/07 11:41:56;;;;;;;10.87;9.50;;;8.20;99.90;;;;;;4933160;29;20234;-79
2023/03/07 11:44:33;;;;;;;13.47;12.17;;;8.40;99.90;;;;;;4934625;29;20199;-79
2023/03/07 11:47:18;;;;;;;9.30;8.20;;;8.50;99.90;;;;;;4933087;29;20645;-79
2023/03/07 11:49:54;;;;;;;12.80;11.60;;;8.80;99.90;;;;;;4927026;29;20203;-83
2023/03/07 11:52:38;;;;;;;13.13;11.83;;;9.00;99.90;;;;;;4933278;29;20230;-79
2023/03/07 11:55:18;;;;;;;13.00;11.80;;;9.00;99.90;;;;;;4926864;29;20649;-80
2023/03/07 11:57:57;;;;;;;13.10;11.90;;;9.10;99.90;;;;;;4937945;29;20263;-79
2023/03/07 12:00:32;;;;;;;12.10;11.00;;;9.20;99.90;;;;;;4932059;29;20621;-79
2023/03/07 12:03:29;;;;;;;13.03;11.70;;;9.50;99.90;;;;;;4939548;29;20229;-80
2023/03/07 12:06:29;;;;;;;12.70;11.50;;;9.60;99.90;;;;;;4929148;29;20219;-80
2023/03/07 12:09:20;;;;;;;13.87;12.57;;;9.70;99.90;;;;;;4860726;29;20217;-80
2023/03/07 12:12:12;;;;;;;13.60;12.30;;;9.50;99.90;;;;;;4923996;29;20278;-83
2023/03/07 12:14:47;;;;;;;14.17;12.10;;;9.20;99.90;;;;;;4937575;29;20217;-80
2023/03/07 12:17:26;;;;;;;12.87;11.63;;;9.10;99.90;;;;;;4937263;29;20258;-80
2023/03/07 12:20:10;;;;;;;13.27;11.97;;;9.30;99.90;;;;;;4938254;29;20207;-84
2023/03/07 12:22:44;;;;;;;13.03;11.70;;;9.40;99.90;;;;;;4937931;29;20322;-81
2023/03/07 12:25:25;;;;;;;12.90;11.57;;;9.50;99.90;;;;;;4937670;29;20200;-80
2023/03/07 12:28:04;;;;;;;13.53;12.03;;;9.40;99.90;;;;;;4917167;29;20214;-81
2023/03/07 12:30:38;;;;;;;12.90;11.80;;;9.30;99.90;;;;;;4931292;29;20215;-80
2023/03/07 12:33:06;;;;;;;13.37;12.07;;;9.00;99.90;;;;;;4929536;29;20210;-80
2023/03/07 12:35:41;;;;;;;13.23;11.87;;;8.80;99.90;;;;;;4929340;29;20224;-81
2023/03/07 12:38:12;;;;;;;12.87;11.67;;;8.70;99.90;;;;;;4934907;29;20253;-81
2023/03/07 12:40:45;;;;;;;10.43;8.17;;;8.70;99.90;;;;;;4929083;29;20255;-81
2023/03/07 12:43:19;;;;;;;13.30;12.10;;;8.60;99.90;;;;;;4913470;29;20774;-80
2023/03/07 12:45:50;;;;;;;14.10;12.57;;;8.60;99.90;;;;;;4945587;29;20680;-80
2023/03/07 12:48:22;;;;;;;13.87;12.43;;;8.70;99.90;;;;;;4932110;29;20673;-81
2023/03/07 12:50:58;;;;;;;13.23;11.93;;;8.80;99.90;;;;;;4931075;29;20686;-80
2023/03/07 12:53:33;;;;;;;13.73;12.43;;;8.90;99.90;;;;;;4932520;29;20454;-85
2023/03/07 12:56:06;;;;;;;12.93;11.80;;;8.80;99.90;;;;;;4928777;29;20239;-86
2023/03/07 12:58:42;;;;;;;12.50;11.30;;;8.70;99.90;;;;;;4932451;29;20212;-85
2023/03/07 13:01:14;;;;;;;14.93;11.77;;;8.60;99.90;;;;;;4923354;29;20241;-84
2023/03/07 13:03:50;;;;;;;12.70;11.60;;;8.50;99.90;;;;;;4930827;29;20234;-83
2023/03/07 13:06:19;;;;;;;12.87;11.67;;;8.60;99.90;;;;;;4933814;29;20210;-81
2023/03/07 13:08:48;;;;;;;12.20;11.00;;;8.60;99.90;;;;;;4929645;29;20252;-80
2023/03/07 13:11:21;;;;;;;10.90;10.00;;;8.70;99.90;;;;;;4933207;29;20231;-81
2023/03/07 13:13:55;;;;;;;11.27;10.23;;;8.70;99.90;;;;;;4929521;29;20207;-83
2023/03/07 13:16:37;;;;;;;11.13;10.13;;;8.90;99.90;;;;;;4930148;29;20207;-82
2023/03/07 13:19:47;;;;;;;11.17;9.93;;;9.00;99.90;;;;;;4936477;29;20222;-83
2023/03/07 13:22:52;;;;;;;10.30;9.50;;;9.10;99.90;;;;;;4928272;29;20230;-83
2023/03/07 13:25:42;;;;;;;10.70;9.80;;;9.30;99.90;;;;;;4942848;29;20278;-82
2023/03/07 13:28:34;;;;;;;11.17;10.17;;;9.10;99.90;;;;;;4925928;29;20212;-83
2023/03/07 13:31:34;;;;;;;10.63;9.73;;;9.00;99.90;;;;;;4924742;29;20287;-82
2023/03/07 13:34:40;;;;;;;11.23;10.23;;;8.80;99.90;;;;;;4918753;29;20219;-82
2023/03/07 13:37:49;;;;;;;10.87;9.97;;;8.90;99.90;;;;;;4921129;29;20207;-82
2023/03/07 13:40:48;;;;;;;11.50;10.40;;;8.80;99.90;;;;;;4926694;29;20198;-81
2023/03/07 13:43:35;;;;;;;10.80;9.90;;;8.70;99.90;;;;;;4927728;29;20232;-83
2023/03/07 13:46:02;;;;;;;10.80;9.80;;;8.80;99.90;;;;;;4925628;29;20230;-83
2023/03/07 13:49:02;;;;;;;10.90;10.00;;;8.80;99.90;;;;;;4934341;29;20201;-81
2023/03/07 13:51:29;;;;;;;11.07;10.17;;;8.90;99.90;;;;;;4929424;29;20323;-82
2023/03/07 13:54:01;;;;;;;11.53;10.53;;;9.00;99.90;;;;;;4927913;29;20677;-83
2023/03/07 13:56:30;;;;;;;12.07;11.07;;;9.20;99.90;;;;;;4927944;29;20682;-83
2023/03/07 13:59:00;;;;;;;11.37;10.40;;;9.10;99.90;;;;;;4922125;29;20227;-82
2023/03/07 14:01:32;;;;;;;12.37;11.27;;;9.10;99.90;;;;;;4920794;29;20227;-82
2023/03/07 14:04:08;;;;;;;12.37;11.17;;;9.00;99.90;;;;;;4922669;29;20204;-82
2023/03/07 14:06:39;;;;;;;12.03;10.93;;;8.90;99.90;;;;;;4932651;29;20194;-82
2023/03/07 14:09:08;;;;;;;13.43;12.13;;;8.90;99.90;;;;;;4931285;29;20203;-83
2023/03/07 14:11:42;;;;;;;12.53;11.23;;;8.80;99.90;;;;;;4934028;29;20220;-83
2023/03/07 14:14:22;;;;;;;11.67;10.47;;;8.70;99.90;;;;;;4930849;29;20207;-83
2023/03/07 14:17:03;;;;;;;21.83;12.60;;;8.70;99.90;;;;;;4949486;29;20203;-82
2023/03/07 14:19:57;;;;;;;14.67;11.37;;;8.60;99.90;;;;;;4926580;29;20211;-82
2023/03/07 14:22:41;;;;;;;13.77;10.87;;;8.70;99.90;;;;;;4925918;29;20223;-81
2023/03/07 14:25:16;;;;;;;12.33;11.10;;;8.70;99.90;;;;;;4916409;29;20254;-81
2023/03/07 14:27:51;;;;;;;11.07;10.10;;;8.70;99.90;;;;;;4943309;29;20655;-81
2023/03/07 14:30:19;;;;;;;11.97;10.87;;;8.80;99.90;;;;;;4929143;29;20206;-81
2023/03/07 14:32:46;;;;;;;11.63;10.63;;;8.90;99.90;;;;;;4933466;29;20207;-82
2023/03/07 14:35:15;;;;;;;11.70;10.77;;;8.90;99.90;;;;;;4936004;29;20266;-81
2023/03/07 14:37:44;;;;;;;11.37;10.37;;;9.00;99.90;;;;;;4938122;29;20235;-78
2023/03/07 14:40:30;;;;;;;10.83;9.90;;;8.90;99.90;;;;;;4932699;29;20211;-81
2023/03/07 14:43:11;;;;;;;10.87;9.93;;;8.80;99.90;;;;;;4927730;29;20214;-83
2023/03/07 14:45:42;;;;;;;12.53;11.50;;;8.70;99.90;;;;;;4934643;29;20656;-83
2023/03/07 14:48:24;;;;;;;10.90;10.00;;;8.60;99.90;;;;;;4934154;29;20242;-81
2023/03/07 14:50:53;;;;;;;11.03;10.07;;;8.50;99.90;;;;;;4922840;29;20792;-83
2023/03/07 14:53:23;;;;;;;10.50;9.60;;;8.40;99.90;;;;;;4927528;29;20290;-82
2023/03/07 14:56:08;;;;;;;11.00;9.90;;;8.40;99.90;;;;;;4934726;29;20279;-82
2023/03/07 14:58:48;;;;;;;10.37;9.43;;;8.30;99.90;;;;;;4930276;29;20203;-83
2023/03/07 15:01:18;;;;;;;10.40;9.50;;;8.30;99.90;;;;;;4933359;29;20249;-77
2023/03/07 15:03:47;;;;;;;10.43;9.60;;;8.20;99.90;;;;;;4935579;29;20223;-81
2023/03/07 15:06:18;;;;;;;9.87;9.07;;;8.30;99.90;;;;;;4929148;29;20203;-80
2023/03/07 15:08:47;;;;;;;10.00;9.20;;;8.20;99.90;;;;;;4935142;29;20199;-82
2023/03/07 15:11:22;;;;;;;10.40;9.50;;;8.20;99.90;;;;;;4936136;29;20772;-77
2023/03/07 15:13:53;;;;;;;13.03;9.93;;;8.10;99.90;;;;;;4937328;29;20659;-78
2023/03/07 15:16:23;;;;;;;10.60;9.70;;;8.10;99.90;;;;;;4936842;29;20226;-78
2023/03/07 15:18:53;;;;;;;10.77;9.80;;;8.10;99.90;;;;;;4937504;29;20756;-78
2023/03/07 15:21:25;;;;;;;10.43;9.47;;;8.10;99.90;;;;;;4950509;29;20717;-78
2023/03/07 15:23:53;;;;;;;10.20;9.20;;;8.10;99.90;;;;;;4938647;29;20547;-79
2023/03/07 15:26:23;;;;;;;10.30;9.40;;;8.10;99.90;;;;;;4938542;29;20270;-78
2023/03/07 15:28:50;;;;;;;10.53;9.53;;;8.10;99.90;;;;;;4934351;29;20295;-78
2023/03/07 15:31:22;;;;;;;9.87;9.07;;;8.00;99.90;;;;;;4939936;29;20636;-77
2023/03/07 15:33:49;;;;;;;9.90;9.10;;;8.00;99.90;;;;;;4938563;29;20263;-78
2023/03/07 15:36:19;;;;;;;10.00;9.20;;;8.00;99.90;;;;;;4922598;29;20255;-78
2023/03/07 15:38:53;;;;;;;9.67;8.87;;;7.90;99.90;;;;;;4924956;29;20195;-78
2023/03/07 15:41:32;;;;;;;9.87;9.07;;;7.80;99.90;;;;;;4929255;29;20229;-79
2023/03/07 15:44:15;;;;;;;9.10;8.40;;;7.70;99.90;;;;;;4926003;29;20203;-78
2023/03/07 15:46:44;;;;;;;9.63;8.83;;;7.70;99.90;;;;;;4918020;29;20206;-78
2023/03/07 15:49:18;;;;;;;9.37;8.63;;;7.60;99.90;;;;;;4911908;29;20730;-78
2023/03/07 15:51:45;;;;;;;9.40;8.60;;;7.50;99.90;;;;;;4929514;29;20279;-78
2023/03/07 15:54:22;;;;;;;11.63;8.60;;;7.50;99.90;;;;;;4941158;29;20207;-79
2023/03/07 15:56:55;;;;;;;9.80;9.00;;;7.40;99.90;;;;;;4939478;29;20273;-79
2023/03/07 15:59:27;;;;;;;10.00;9.00;;;7.40;99.90;;;;;;4937006;29;20298;-78
2023/03/07 16:01:54;;;;;;;9.53;8.83;;;7.40;99.90;;;;;;4941670;29;20227;-79
2023/03/07 16:04:35;;;;;;;9.63;8.83;;;7.50;99.90;;;;;;4926016;29;20202;-79